Time;durP1;ratioP1;P1;durP2;ratioP2;P2;SDS_P1;SDS_P2;PMS_P1;PMS_P2;Temp;Humidity;BMP_temperature;BMP_pressure;BME280_temperature;BME280_humidity;BME280_pressure;Samples;Min_cycle;Max_cycle;Signal;HPM_P1;HPM_P2
2021/06/15 00:32:04;;;;;;;19.50;12.57;;;18.10;99.90;;;;;;4996702;28;20536;-45
2021/06/15 00:34:31;;;;;;;12.93;11.63;;;18.10;99.90;;;;;;4998442;28;20908;-46
2021/06/15 00:36:58;;;;;;;13.17;11.33;;;18.00;99.90;;;;;;4998410;28;20469;-46
2021/06/15 00:39:25;;;;;;;14.47;13.07;;;17.90;99.90;;;;;;4998077;28;20439;-45
2021/06/15 00:41:52;;;;;;;13.03;11.83;;;17.80;99.90;;;;;;4997891;28;20467;-50
2021/06/15 00:44:19;;;;;;;12.83;11.63;;;17.70;99.90;;;;;;4998374;28;20604;-51
2021/06/15 00:46:47;;;;;;;14.50;13.10;;;17.70;99.90;;;;;;4998098;28;20476;-54
2021/06/15 00:49:24;;;;;;;13.20;11.87;;;17.60;99.90;;;;;;4998030;28;20461;-51
2021/06/15 00:51:51;;;;;;;12.73;11.60;;;17.50;99.90;;;;;;4997673;28;20473;-49
2021/06/15 00:54:18;;;;;;;14.60;12.27;;;17.40;99.90;;;;;;4998269;28;20468;-48
2021/06/15 00:56:45;;;;;;;16.77;12.80;;;17.30;99.90;;;;;;4997359;28;20480;-54
2021/06/15 00:59:12;;;;;;;13.90;12.60;;;17.30;99.90;;;;;;4997804;28;20507;-50
2021/06/15 01:01:40;;;;;;;14.67;12.40;;;17.30;99.90;;;;;;4997571;28;20788;-53
2021/06/15 01:04:09;;;;;;;14.03;12.50;;;17.30;99.90;;;;;;4997465;28;20465;-48
2021/06/15 01:06:50;;;;;;;14.27;11.60;;;17.20;99.90;;;;;;4989050;28;20492;-46
2021/06/15 01:09:28;;;;;;;12.80;11.80;;;17.20;99.90;;;;;;4997813;28;20928;-45
2021/06/15 01:12:06;;;;;;;17.30;12.37;;;17.20;99.90;;;;;;4997084;28;20476;-46
2021/06/15 01:14:53;;;;;;;16.73;14.40;;;17.10;99.90;;;;;;4988089;28;20464;-48
2021/06/15 01:17:29;;;;;;;12.90;11.77;;;17.00;99.90;;;;;;4997701;28;20468;-52
2021/06/15 01:20:10;;;;;;;14.67;11.67;;;17.00;99.90;;;;;;4997962;28;20460;-48
2021/06/15 01:22:54;;;;;;;13.53;12.17;;;17.00;99.90;;;;;;4998159;28;20460;-49
2021/06/15 01:25:28;;;;;;;14.30;12.80;;;16.90;99.90;;;;;;4997362;28;20479;-49
2021/06/15 01:27:59;;;;;;;13.40;11.37;;;16.80;99.90;;;;;;4981249;28;20454;-49
2021/06/15 01:30:33;;;;;;;14.73;13.30;;;16.70;99.90;;;;;;4997653;28;20490;-48
2021/06/15 01:33:03;;;;;;;14.07;12.67;;;16.60;99.90;;;;;;4997965;28;20460;-52
2021/06/15 01:35:33;;;;;;;14.80;13.23;;;16.60;99.90;;;;;;4998287;28;20477;-49
2021/06/15 01:38:03;;;;;;;15.47;13.97;;;16.60;99.90;;;;;;4997600;28;20480;-45
2021/06/15 01:40:37;;;;;;;14.43;13.00;;;16.50;99.90;;;;;;4997673;28;20890;-45
2021/06/15 01:43:13;;;;;;;14.00;12.43;;;16.50;99.90;;;;;;4997264;28;20472;-47
2021/06/15 01:45:46;;;;;;;14.07;12.67;;;16.40;99.90;;;;;;4997565;28;20471;-45
2021/06/15 01:48:19;;;;;;;13.97;12.57;;;16.50;99.90;;;;;;4997126;28;20490;-47
2021/06/15 01:50:48;;;;;;;13.90;12.70;;;16.40;99.90;;;;;;4997508;28;20476;-46
2021/06/15 01:53:18;;;;;;;13.77;12.10;;;16.40;99.90;;;;;;4997419;28;20566;-46
2021/06/15 01:55:49;;;;;;;15.30;13.80;;;16.40;99.90;;;;;;4997454;28;20465;-47
2021/06/15 01:58:19;;;;;;;13.63;12.27;;;16.30;99.90;;;;;;4997250;28;20920;-45
2021/06/15 02:00:47;;;;;;;13.77;12.30;;;16.30;99.90;;;;;;4997177;28;20469;-45
2021/06/15 02:03:14;;;;;;;13.67;12.40;;;16.30;99.90;;;;;;4991108;28;20475;-45
2021/06/15 02:05:46;;;;;;;13.60;12.27;;;16.30;99.90;;;;;;4994227;28;20476;-45
2021/06/15 02:08:19;;;;;;;15.27;13.90;;;16.20;99.90;;;;;;4997221;28;20461;-45
2021/06/15 02:10:49;;;;;;;13.87;12.57;;;16.20;99.90;;;;;;4996989;28;20473;-45
2021/06/15 02:13:19;;;;;;;14.10;12.63;;;16.10;99.90;;;;;;4996895;28;20472;-46
2021/06/15 02:15:49;;;;;;;14.07;12.77;;;16.20;99.90;;;;;;5000243;28;20461;-45
2021/06/15 02:18:19;;;;;;;13.50;12.20;;;16.10;99.90;;;;;;5000600;28;20555;-47
2021/06/15 02:20:47;;;;;;;16.20;13.10;;;16.10;99.90;;;;;;5001143;28;20907;-49
2021/06/15 02:23:20;;;;;;;14.23;12.90;;;16.10;99.90;;;;;;4981326;28;20465;-53
2021/06/15 02:25:51;;;;;;;15.13;13.40;;;16.00;99.90;;;;;;4981795;28;20564;-54
2021/06/15 02:28:20;;;;;;;14.97;13.50;;;15.90;99.90;;;;;;4981333;28;20763;-51
2021/06/15 02:30:48;;;;;;;15.03;13.00;;;15.90;99.90;;;;;;4980930;28;20784;-52
2021/06/15 02:33:18;;;;;;;16.50;13.90;;;15.90;99.90;;;;;;4981009;28;20459;-55
2021/06/15 02:35:50;;;;;;;13.80;12.50;;;15.80;99.90;;;;;;4981123;28;20466;-54
2021/06/15 02:38:24;;;;;;;17.10;13.80;;;15.80;99.90;;;;;;4984182;28;20453;-54
2021/06/15 02:40:52;;;;;;;14.57;12.97;;;15.80;99.90;;;;;;5000472;28;20508;-51
2021/06/15 02:43:24;;;;;;;14.20;12.97;;;15.80;99.90;;;;;;5000192;28;20468;-49
2021/06/15 02:45:54;;;;;;;14.57;13.00;;;15.70;99.90;;;;;;5000499;28;20563;-52
2021/06/15 02:48:23;;;;;;;14.60;13.30;;;15.70;99.90;;;;;;5000416;28;20583;-47
2021/06/15 02:50:53;;;;;;;14.93;13.60;;;15.70;99.90;;;;;;5000659;28;20485;-52
2021/06/15 02:53:27;;;;;;;15.23;13.20;;;15.70;99.90;;;;;;5000267;28;20443;-46
2021/06/15 02:55:59;;;;;;;13.80;12.40;;;15.60;99.90;;;;;;5000455;28;20469;-50
2021/06/15 02:58:31;;;;;;;16.57;14.87;;;15.60;99.90;;;;;;5000079;28;20468;-46
2021/06/15 03:01:00;;;;;;;14.73;13.40;;;15.60;99.90;;;;;;5000404;28;20464;-46
2021/06/15 03:03:27;;;;;;;14.67;13.20;;;15.60;99.90;;;;;;4993799;28;20456;-46
2021/06/15 03:05:55;;;;;;;20.30;14.53;;;15.60;99.90;;;;;;4998006;28;20476;-50
2021/06/15 03:08:22;;;;;;;17.00;15.20;;;15.60;99.90;;;;;;4999517;28;20591;-56
2021/06/15 03:10:49;;;;;;;16.37;14.77;;;15.60;99.90;;;;;;4999810;28;20460;-48
2021/06/15 03:13:19;;;;;;;17.63;14.80;;;15.60;99.90;;;;;;4999075;28;20496;-56
2021/06/15 03:15:50;;;;;;;15.40;13.97;;;15.40;99.90;;;;;;4999677;28;20461;-53
2021/06/15 03:18:26;;;;;;;18.10;14.07;;;15.40;99.90;;;;;;4999847;28;20457;-55
2021/06/15 03:20:57;;;;;;;14.97;13.27;;;15.40;99.90;;;;;;4999409;28;20550;-56
2021/06/15 03:23:42;;;;;;;15.70;14.17;;;15.40;99.90;;;;;;4979935;28;20493;-54
2021/06/15 03:26:14;;;;;;;15.80;13.73;;;15.40;99.90;;;;;;4979219;28;20465;-54
2021/06/15 03:28:45;;;;;;;16.80;14.80;;;15.40;99.90;;;;;;4979616;28;20501;-56
2021/06/15 03:31:17;;;;;;;17.30;15.20;;;15.40;99.90;;;;;;4993933;28;20508;-56
2021/06/15 03:33:51;;;;;;;17.67;14.90;;;15.50;99.90;;;;;;4999891;28;20917;-52
2021/06/15 03:36:20;;;;;;;16.53;14.73;;;15.50;99.90;;;;;;4999332;28;20883;-55
2021/06/15 03:38:49;;;;;;;20.77;14.63;;;15.50;99.90;;;;;;4998817;28;20467;-56
2021/06/15 03:41:17;;;;;;;18.93;16.97;;;15.50;99.90;;;;;;4999391;28;20515;-53
2021/06/15 03:43:48;;;;;;;16.53;14.60;;;15.50;99.90;;;;;;4999055;28;20439;-54
2021/06/15 03:46:20;;;;;;;16.97;15.30;;;15.60;99.90;;;;;;4999175;28;20468;-55
2021/06/15 03:48:50;;;;;;;21.13;16.40;;;15.60;99.90;;;;;;4998994;28;20472;-55
2021/06/15 03:51:19;;;;;;;21.93;18.30;;;15.70;99.90;;;;;;4999328;28;20461;-55
2021/06/15 03:53:47;;;;;;;21.23;18.97;;;15.70;99.90;;;;;;4999136;28;20469;-55
2021/06/15 03:56:16;;;;;;;19.00;16.97;;;15.70;99.90;;;;;;4998592;28;20473;-54
2021/06/15 03:58:45;;;;;;;18.23;16.57;;;15.70;99.90;;;;;;4998807;28;20464;-50
2021/06/15 04:01:16;;;;;;;17.53;15.70;;;15.80;99.90;;;;;;4998948;28;20468;-48
2021/06/15 04:03:46;;;;;;;16.90;15.20;;;15.80;99.90;;;;;;4992440;28;20482;-50
2021/06/15 04:06:15;;;;;;;17.97;15.37;;;15.80;99.90;;;;;;4995285;28;20480;-49
2021/06/15 04:08:42;;;;;;;17.70;15.90;;;15.80;99.90;;;;;;4998154;28;20493;-52
2021/06/15 04:11:11;;;;;;;18.27;16.43;;;15.80;99.90;;;;;;4998579;28;20495;-50
2021/06/15 04:13:42;;;;;;;21.53;18.63;;;15.90;99.90;;;;;;4998548;28;20469;-46
2021/06/15 04:16:12;;;;;;;23.53;20.87;;;16.00;99.90;;;;;;4998364;28;20465;-46
2021/06/15 04:18:45;;;;;;;25.47;21.80;;;16.10;99.90;;;;;;4998398;28;20465;-47
2021/06/15 04:21:15;;;;;;;23.83;21.50;;;16.20;99.90;;;;;;4998348;28;20540;-52
2021/06/15 04:23:47;;;;;;;22.70;20.60;;;16.20;99.90;;;;;;4998664;28;20468;-47
2021/06/15 04:26:14;;;;;;;25.03;22.47;;;16.30;99.90;;;;;;4998412;28;20464;-46
2021/06/15 04:28:41;;;;;;;24.70;22.23;;;16.40;99.90;;;;;;4998234;28;20493;-46
2021/06/15 04:31:10;;;;;;;26.00;23.60;;;16.50;99.90;;;;;;4997935;28;20912;-46
2021/06/15 04:33:39;;;;;;;27.90;23.60;;;16.60;99.90;;;;;;4998801;28;20465;-49
2021/06/15 04:36:08;;;;;;;26.87;24.03;;;16.60;99.90;;;;;;4998002;28;20520;-54
2021/06/15 04:38:41;;;;;;;26.70;23.87;;;16.70;99.90;;;;;;4996781;28;20465;-55
2021/06/15 04:41:14;;;;;;;29.40;26.40;;;16.80;99.90;;;;;;4993725;28;20475;-53
2021/06/15 04:43:47;;;;;;;25.23;22.93;;;16.80;99.90;;;;;;4998447;28;20818;-55
2021/06/15 04:46:19;;;;;;;28.80;23.30;;;16.90;99.90;;;;;;4997732;28;20470;-53
2021/06/15 04:48:50;;;;;;;28.13;25.13;;;16.90;99.90;;;;;;4997812;28;20471;-56
2021/06/15 04:51:22;;;;;;;27.57;24.70;;;16.80;99.90;;;;;;4997235;28;20783;-56
2021/06/15 04:53:50;;;;;;;25.10;22.40;;;16.70;99.90;;;;;;4998217;28;20468;-55
2021/06/15 04:56:21;;;;;;;24.57;22.20;;;16.70;99.90;;;;;;4997901;28;20483;-56
2021/06/15 04:58:49;;;;;;;28.20;24.77;;;16.60;99.90;;;;;;4997747;28;20461;-56
2021/06/15 05:01:18;;;;;;;27.53;24.63;;;16.50;99.90;;;;;;4997973;28;20469;-55
2021/06/15 05:03:46;;;;;;;28.53;25.37;;;16.50;99.90;;;;;;4991437;28;20761;-52
2021/06/15 05:06:15;;;;;;;32.70;29.27;;;16.50;99.90;;;;;;4997410;28;20877;-49
2021/06/15 05:08:47;;;;;;;32.83;27.50;;;16.60;99.90;;;;;;4997306;28;20467;-53
2021/06/15 05:11:15;;;;;;;32.63;29.20;;;16.80;99.90;;;;;;4997489;28;20460;-47
2021/06/15 05:13:44;;;;;;;31.93;28.70;;;16.90;99.90;;;;;;4997201;28;20504;-47
2021/06/15 05:16:15;;;;;;;32.23;28.70;;;17.10;99.90;;;;;;4998181;28;20519;-49
2021/06/15 05:18:42;;;;;;;32.17;28.87;;;17.20;99.90;;;;;;4998337;28;20893;-53
2021/06/15 05:21:14;;;;;;;31.50;28.40;;;17.30;99.90;;;;;;4997271;28;20849;-47
2021/06/15 05:23:45;;;;;;;32.37;29.10;;;17.30;99.90;;;;;;4997159;28;20473;-48
2021/06/15 05:26:13;;;;;;;32.70;28.03;;;17.30;99.90;;;;;;4995933;28;20487;-47
2021/06/15 05:28:40;;;;;;;31.30;28.07;;;17.40;99.90;;;;;;4997634;28;20464;-50
2021/06/15 05:31:09;;;;;;;30.40;25.63;;;17.50;99.90;;;;;;4998591;28;20504;-49
2021/06/15 05:33:36;;;;;;;27.70;24.93;;;17.60;99.90;;;;;;4998648;28;20475;-50
2021/06/15 05:36:06;;;;;;;27.30;24.40;;;17.70;99.90;;;;;;4998066;28;20471;-46
2021/06/15 05:38:33;;;;;;;26.13;23.73;;;17.70;99.90;;;;;;4997791;28;20490;-54
2021/06/15 05:41:01;;;;;;;28.63;23.33;;;17.70;99.90;;;;;;4997040;28;20465;-53
2021/06/15 05:43:28;;;;;;;28.90;24.77;;;17.60;99.90;;;;;;4997506;28;20476;-55
2021/06/15 05:45:57;;;;;;;27.80;24.57;;;17.70;99.90;;;;;;4997600;28;20469;-53
2021/06/15 05:48:24;;;;;;;26.23;23.63;;;17.80;99.90;;;;;;4997227;28;20864;-53
2021/06/15 05:50:51;;;;;;;26.23;23.53;;;18.00;99.90;;;;;;5000200;28;20945;-54
2021/06/15 05:53:23;;;;;;;26.10;23.40;;;18.20;99.90;;;;;;5001609;28;20469;-55
2021/06/15 05:55:50;;;;;;;28.77;25.47;;;18.30;99.90;;;;;;5001570;28;20780;-56
2021/06/15 05:58:18;;;;;;;35.33;25.20;;;18.50;99.90;;;;;;5000740;28;20460;-52
2021/06/15 06:00:49;;;;;;;29.73;24.40;;;18.80;99.90;;;;;;4999854;28;20516;-53
2021/06/15 06:03:21;;;;;;;27.50;24.80;;;18.90;99.90;;;;;;4995016;28;20608;-47
2021/06/15 06:08:35;;;;;;;26.03;23.63;;;19.40;99.90;;;;;;5000164;28;20460;-56
2021/06/15 06:11:05;;;;;;;27.03;24.33;;;19.60;99.90;;;;;;4998294;28;20655;-53
2021/06/15 06:13:35;;;;;;;30.00;26.00;;;20.00;99.90;;;;;;5000026;28;20524;-56
2021/06/15 06:16:08;;;;;;;25.97;23.47;;;20.20;99.90;;;;;;5001069;28;20476;-52
2021/06/15 06:18:37;;;;;;;25.80;23.10;;;20.50;99.90;;;;;;5000808;28;20500;-53
2021/06/15 06:21:07;;;;;;;24.30;21.97;;;20.50;99.90;;;;;;5001147;28;20449;-50
2021/06/15 06:23:36;;;;;;;25.37;22.80;;;20.70;99.90;;;;;;5001390;28;20464;-53
2021/06/15 06:26:03;;;;;;;27.47;22.87;;;20.90;99.90;;;;;;5001480;28;20512;-54
2021/06/15 06:28:30;;;;;;;24.60;22.07;;;21.10;99.90;;;;;;5001073;28;20461;-53
2021/06/15 06:30:59;;;;;;;23.23;20.87;;;21.40;99.90;;;;;;5000324;28;20503;-51
2021/06/15 06:33:27;;;;;;;25.20;22.57;;;21.50;99.90;;;;;;5000824;28;20469;-49
2021/06/15 06:35:54;;;;;;;24.93;22.47;;;21.60;99.90;;;;;;5001288;28;20491;-48
2021/06/15 06:38:21;;;;;;;24.40;21.77;;;21.70;99.90;;;;;;5000887;28;20464;-54
2021/06/15 06:40:48;;;;;;;23.40;21.10;;;21.80;99.90;;;;;;4997814;28;20471;-47
2021/06/15 06:43:15;;;;;;;23.60;21.20;;;22.00;99.90;;;;;;5002251;28;20476;-51
2021/06/15 06:45:42;;;;;;;21.40;19.10;;;22.40;99.90;;;;;;5000248;28;20468;-51
2021/06/15 06:48:12;;;;;;;21.97;19.77;;;22.30;99.90;;;;;;5000273;28;20766;-54
2021/06/15 06:50:42;;;;;;;21.63;19.47;;;22.40;99.90;;;;;;4999202;28;20497;-53
2021/06/15 06:53:09;;;;;;;22.10;20.00;;;22.40;99.90;;;;;;4998753;28;20819;-54
2021/06/15 06:55:36;;;;;;;22.17;20.07;;;23.00;99.90;;;;;;4998095;28;20473;-53
2021/06/15 06:58:03;;;;;;;21.57;19.40;;;23.60;99.90;;;;;;5000230;28;20469;-54
2021/06/15 07:00:31;;;;;;;25.70;19.93;;;23.70;99.90;;;;;;4998786;28;20461;-54
2021/06/15 07:02:58;;;;;;;22.20;19.80;;;23.70;99.90;;;;;;4994228;28;20476;-54
2021/06/15 07:05:28;;;;;;;22.90;20.50;;;23.90;99.90;;;;;;4995105;28;20469;-54
2021/06/15 07:07:59;;;;;;;21.80;19.77;;;23.80;99.90;;;;;;4999001;28;20903;-53
2021/06/15 07:10:26;;;;;;;22.23;19.90;;;24.20;99.90;;;;;;4999818;28;20474;-55
2021/06/15 07:12:53;;;;;;;20.03;18.43;;;24.10;99.90;;;;;;4999911;28;20905;-54
2021/06/15 07:15:21;;;;;;;20.83;18.77;;;24.30;99.90;;;;;;4999784;28;20464;-53
2021/06/15 07:17:48;;;;;;;18.00;16.30;;;24.60;99.90;;;;;;5000124;28;20581;-52
2021/06/15 07:20:15;;;;;;;19.70;17.83;;;24.60;99.90;;;;;;4998582;28;20465;-49
2021/06/15 07:22:44;;;;;;;19.40;17.60;;;24.60;99.30;;;;;;4997925;28;20461;-48
2021/06/15 07:25:12;;;;;;;20.40;18.50;;;23.60;99.90;;;;;;4998093;28;20472;-55
2021/06/15 07:27:39;;;;;;;23.30;19.27;;;23.50;99.90;;;;;;4999174;28;20465;-53
2021/06/15 07:30:10;;;;;;;20.00;17.90;;;23.60;99.90;;;;;;4998709;28;20647;-53
2021/06/15 07:32:37;;;;;;;19.40;17.40;;;23.30;99.90;;;;;;4998838;28;20468;-54
2021/06/15 07:35:06;;;;;;;22.00;19.73;;;23.00;99.90;;;;;;4998856;28;20472;-55
2021/06/15 07:37:33;;;;;;;20.43;18.33;;;23.30;99.90;;;;;;4999789;28;20500;-53
2021/06/15 07:40:01;;;;;;;19.77;17.97;;;23.50;99.90;;;;;;4997867;28;20469;-52
2021/06/15 07:42:30;;;;;;;18.53;16.93;;;24.10;99.90;;;;;;4998609;28;20870;-53
2021/06/15 07:45:04;;;;;;;16.87;15.07;;;24.60;99.90;;;;;;4998030;28;20928;-53
2021/06/15 07:47:31;;;;;;;18.23;15.67;;;23.60;99.90;;;;;;4998046;28;20472;-48
2021/06/15 07:49:58;;;;;;;16.27;14.60;;;24.40;99.90;;;;;;4998936;28;20496;-48
2021/06/15 07:52:28;;;;;;;20.73;17.97;;;25.30;99.90;;;;;;4999578;28;20791;-47
2021/06/15 07:54:55;;;;;;;18.43;16.67;;;25.20;97.10;;;;;;4998978;28;20778;-54
2021/06/15 07:57:27;;;;;;;15.70;13.90;;;25.20;98.10;;;;;;4999436;28;20501;-54
2021/06/15 08:00:00;;;;;;;16.47;14.90;;;25.90;97.80;;;;;;4999788;28;20473;-55
2021/06/15 08:02:28;;;;;;;16.93;15.30;;;24.90;96.60;;;;;;4997769;28;20894;-51
2021/06/15 08:04:56;;;;;;;16.67;15.20;;;25.30;96.70;;;;;;4992278;28;20509;-55
2021/06/15 08:07:23;;;;;;;16.97;15.23;;;25.50;96.10;;;;;;4998970;28;20752;-55
2021/06/15 08:09:50;;;;;;;15.00;13.67;;;26.10;95.40;;;;;;4998654;28;21019;-56
2021/06/15 08:12:20;;;;;;;18.73;16.83;;;25.10;93.30;;;;;;4998494;28;20462;-51
2021/06/15 08:14:51;;;;;;;16.23;14.83;;;24.80;98.60;;;;;;4998647;28;20468;-51
2021/06/15 08:17:19;;;;;;;21.40;16.20;;;24.80;97.70;;;;;;4999119;28;20469;-50
2021/06/15 08:19:46;;;;;;;19.20;17.30;;;24.60;99.20;;;;;;4999019;28;20758;-53
2021/06/15 08:22:13;;;;;;;17.23;15.47;;;24.80;99.90;;;;;;4998338;28;20457;-49
2021/06/15 08:24:40;;;;;;;18.00;16.20;;;25.30;96.30;;;;;;4998722;28;20501;-52
2021/06/15 08:27:08;;;;;;;18.20;16.43;;;26.20;99.90;;;;;;4998775;28;20475;-55
2021/06/15 08:29:35;;;;;;;18.10;16.27;;;26.80;91.00;;;;;;4997535;28;20472;-50
2021/06/15 08:32:04;;;;;;;18.73;16.90;;;27.20;87.30;;;;;;4997085;28;20461;-53
2021/06/15 08:34:35;;;;;;;19.07;15.90;;;26.80;83.20;;;;;;4997803;28;20476;-52
2021/06/15 08:37:05;;;;;;;17.27;15.80;;;26.60;88.60;;;;;;4998861;28;20472;-55
2021/06/15 08:39:37;;;;;;;17.30;15.57;;;25.90;90.70;;;;;;4998387;28;20762;-55
2021/06/15 08:42:05;;;;;;;16.23;14.80;;;25.60;91.70;;;;;;4998406;28;20543;-49
2021/06/15 08:44:32;;;;;;;16.97;15.13;;;26.20;94.80;;;;;;4998543;28;20905;-52
2021/06/15 08:47:01;;;;;;;18.90;16.30;;;26.40;92.60;;;;;;4998074;28;20511;-48
2021/06/15 08:49:30;;;;;;;18.07;16.13;;;25.50;91.70;;;;;;4998408;28;20465;-49
2021/06/15 08:51:59;;;;;;;15.90;14.27;;;26.00;93.60;;;;;;4998658;28;20501;-46
2021/06/15 08:54:27;;;;;;;14.83;12.70;;;26.60;91.60;;;;;;4998681;28;20464;-53
2021/06/15 08:56:55;;;;;;;15.30;13.97;;;27.00;90.50;;;;;;4998079;28;20473;-55
2021/06/15 08:59:29;;;;;;;15.13;13.53;;;27.60;80.90;;;;;;4998089;28;20480;-55
2021/06/15 09:02:00;;;;;;;13.90;12.50;;;27.90;75.80;;;;;;4997655;28;20535;-55
2021/06/15 09:04:29;;;;;;;14.57;12.07;;;28.30;71.90;;;;;;4990058;28;20476;-55
2021/06/15 09:07:02;;;;;;;11.73;10.73;;;27.70;73.20;;;;;;4997212;28;20456;-55
2021/06/15 10:27:21;;;;;;;5.07;4.67;;;26.50;58.60;;;;;;5001861;23;20494;-49
2021/06/15 10:29:51;;;;;;;4.83;4.30;;;26.70;59.20;;;;;;4978337;28;20798;-53
2021/06/15 10:32:22;;;;;;;6.20;5.17;;;27.30;58.80;;;;;;4978018;28;20546;-56
2021/06/15 10:34:53;;;;;;;7.53;4.70;;;28.20;55.20;;;;;;4978311;28;20774;-55
2021/06/15 10:37:40;;;;;;;5.93;5.37;;;29.30;56.40;;;;;;4980413;28;20845;-54
2021/06/15 10:40:35;;;;;;;5.20;4.63;;;30.30;52.10;;;;;;4980008;28;20468;-55
2021/06/15 10:43:20;;;;;;;5.90;5.30;;;30.20;52.70;;;;;;4981009;28;20791;-54
2021/06/15 10:45:51;;;;;;;6.70;5.40;;;30.50;52.10;;;;;;4980561;28;20543;-56
2021/06/15 10:48:34;;;;;;;5.63;5.10;;;30.10;51.40;;;;;;4981347;28;20815;-56
2021/06/15 10:51:20;;;;;;;5.70;5.20;;;30.00;52.00;;;;;;4987504;28;20763;-56
2021/06/15 10:53:47;;;;;;;4.17;3.77;;;29.70;51.20;;;;;;4999969;28;20882;-54
2021/06/15 10:56:19;;;;;;;7.50;3.57;;;30.70;52.10;;;;;;4999677;28;20469;-56
2021/06/15 10:59:09;;;;;;;3.90;3.60;;;30.80;47.70;;;;;;4999584;28;21090;-56
2021/06/15 11:01:39;;;;;;;5.47;4.97;;;30.50;46.70;;;;;;4999763;28;20472;-56
2021/06/15 11:04:10;;;;;;;5.10;4.50;;;29.50;46.90;;;;;;4977509;28;20906;-56
2021/06/15 11:06:52;;;;;;;7.47;5.83;;;28.60;50.60;;;;;;4970811;28;20470;-56
2021/06/15 11:09:23;;;;;;;5.60;5.10;;;28.30;51.00;;;;;;4979047;28;20470;-58
2021/06/15 11:12:08;;;;;;;6.03;4.40;;;27.90;52.10;;;;;;4978620;28;20982;-56
2021/06/15 11:14:38;;;;;;;7.77;7.07;;;28.70;50.10;;;;;;4966364;28;20444;-55
2021/06/15 11:17:08;;;;;;;9.00;8.30;;;28.90;51.40;;;;;;4972672;28;20466;-54
2021/06/15 11:19:40;;;;;;;9.20;8.40;;;29.40;52.30;;;;;;4976742;28;20480;-56
2021/06/15 11:22:22;;;;;;;9.20;8.30;;;29.80;51.90;;;;;;4971338;28;20541;-56
2021/06/15 11:24:54;;;;;;;8.50;7.70;;;30.00;53.30;;;;;;4973468;28;20807;-55
2021/06/15 11:27:37;;;;;;;8.63;7.73;;;30.40;50.90;;;;;;4975046;28;20834;-56
2021/06/15 11:30:23;;;;;;;9.20;8.40;;;28.50;51.30;;;;;;4975138;28;20751;-56
2021/06/15 11:33:00;;;;;;;8.63;7.93;;;27.30;55.90;;;;;;4975294;28;20861;-55
2021/06/15 11:35:32;;;;;;;8.87;8.00;;;27.60;57.30;;;;;;4970318;28;20932;-52
2021/06/15 11:38:14;;;;;;;6.93;6.17;;;28.90;54.90;;;;;;4971257;28;20474;-54
2021/06/15 11:40:42;;;;;;;7.40;6.10;;;29.50;51.90;;;;;;4977249;28;20498;-53
2021/06/15 11:43:18;;;;;;;5.57;5.00;;;30.10;49.20;;;;;;4977598;28;20462;-52
2021/06/15 11:45:53;;;;;;;5.10;4.60;;;30.60;47.40;;;;;;4975339;28;20536;-55
2021/06/15 11:48:35;;;;;;;6.60;5.20;;;30.50;45.70;;;;;;4977945;28;20832;-56
2021/06/15 11:51:04;;;;;;;4.83;4.43;;;30.10;45.90;;;;;;4975202;28;20501;-55
2021/06/15 11:53:36;;;;;;;7.83;5.63;;;29.00;49.00;;;;;;4977305;28;20521;-49
2021/06/15 11:56:05;;;;;;;6.33;5.93;;;30.30;48.00;;;;;;4977748;28;20845;-56
2021/06/15 11:58:34;;;;;;;5.70;5.30;;;30.80;46.90;;;;;;4977491;28;20895;-56
2021/06/15 12:01:06;;;;;;;6.60;6.10;;;31.10;46.40;;;;;;4978075;28;20741;-57
2021/06/15 12:03:35;;;;;;;6.30;5.90;;;30.90;47.40;;;;;;4969435;28;20474;-57
2021/06/15 12:06:05;;;;;;;6.60;5.40;;;30.60;47.90;;;;;;4975148;28;20474;-57
2021/06/15 12:08:33;;;;;;;8.00;6.00;;;30.40;47.80;;;;;;4977558;28;20465;-57
2021/06/15 12:11:05;;;;;;;9.33;7.17;;;29.60;48.70;;;;;;4977983;28;20739;-57
2021/06/15 12:13:34;;;;;;;7.20;6.50;;;29.30;49.30;;;;;;4971804;28;20770;-57
2021/06/15 12:16:04;;;;;;;7.20;6.60;;;29.60;49.20;;;;;;4977607;28;20468;-55
2021/06/15 12:18:40;;;;;;;7.57;6.13;;;29.90;49.70;;;;;;4977779;28;20862;-57
2021/06/15 12:21:10;;;;;;;6.43;5.83;;;30.30;48.70;;;;;;4971077;28;20473;-57
2021/06/15 12:23:41;;;;;;;6.20;5.70;;;30.40;48.90;;;;;;4973868;28;20474;-56
2021/06/15 12:58:35;;;;;;;5.27;4.87;;;28.30;49.80;;;;;;5402721;23;20689;-54
2021/06/15 13:01:22;;;;;;;4.17;3.90;;;28.70;50.60;;;;;;4998157;28;20461;-47
2021/06/15 13:03:52;;;;;;;5.17;4.60;;;29.70;49.30;;;;;;4990871;28;20570;-51
2021/06/15 13:06:21;;;;;;;4.90;4.27;;;30.60;47.70;;;;;;4996092;28;20515;-53
2021/06/15 13:08:49;;;;;;;6.30;4.90;;;30.60;46.70;;;;;;4997738;28;20581;-53
2021/06/15 13:11:19;;;;;;;5.57;5.07;;;31.00;46.30;;;;;;4997380;28;20493;-54
2021/06/15 13:14:08;;;;;;;5.60;4.90;;;30.10;45.20;;;;;;4997304;28;20911;-52
2021/06/15 13:16:39;;;;;;;5.30;4.90;;;30.90;46.00;;;;;;4991870;28;20480;-53
2021/06/15 13:19:09;;;;;;;5.00;4.60;;;30.90;45.10;;;;;;4997480;28;20465;-52
2021/06/15 13:21:48;;;;;;;5.20;4.20;;;30.70;44.90;;;;;;4997329;28;20959;-52
2021/06/15 13:24:17;;;;;;;5.93;4.17;;;30.30;46.50;;;;;;4997389;28;20460;-49
2021/06/15 13:26:46;;;;;;;4.50;4.10;;;30.40;45.70;;;;;;4996201;28;20465;-52
2021/06/15 13:29:16;;;;;;;5.20;4.77;;;30.40;45.70;;;;;;4996532;28;20518;-46
2021/06/15 13:31:46;;;;;;;5.63;4.63;;;30.40;47.10;;;;;;4996095;28;20540;-52
2021/06/15 13:34:14;;;;;;;6.30;5.70;;;29.10;48.00;;;;;;4996273;28;20897;-54
2021/06/15 13:36:41;;;;;;;6.40;5.90;;;28.40;49.50;;;;;;4996096;28;20472;-55
2021/06/15 13:39:14;;;;;;;6.37;5.30;;;28.60;50.00;;;;;;4997017;28;20461;-51
2021/06/15 13:41:42;;;;;;;6.77;5.40;;;29.50;48.70;;;;;;4996575;28;20469;-54
2021/06/15 13:44:09;;;;;;;5.57;4.93;;;29.90;47.70;;;;;;4997240;28;20908;-56
2021/06/15 13:46:44;;;;;;;5.37;4.87;;;30.30;48.00;;;;;;4999149;28;20756;-50
2021/06/15 13:49:11;;;;;;;4.73;4.33;;;30.60;46.90;;;;;;4998042;28;20465;-48
2021/06/15 13:51:38;;;;;;;5.40;5.00;;;30.90;46.80;;;;;;4996858;28;20500;-55
2021/06/15 13:54:07;;;;;;;5.10;4.60;;;31.00;46.70;;;;;;4997635;28;20464;-51
2021/06/15 13:56:43;;;;;;;6.33;5.57;;;30.70;45.30;;;;;;4996965;28;20476;-55
2021/06/15 13:59:10;;;;;;;4.70;4.30;;;30.50;45.30;;;;;;4997448;28;20490;-51
2021/06/15 14:01:39;;;;;;;5.60;5.20;;;30.70;46.90;;;;;;4996831;28;20460;-50
2021/06/15 14:04:06;;;;;;;5.03;4.63;;;30.40;44.70;;;;;;4988630;28;20474;-49
2021/06/15 14:06:33;;;;;;;4.93;4.43;;;29.90;46.20;;;;;;4996839;28;20460;-52
2021/06/15 14:09:00;;;;;;;4.60;4.20;;;29.70;49.10;;;;;;4996773;28;20453;-51
2021/06/15 14:11:27;;;;;;;5.50;5.10;;;29.50;47.70;;;;;;4999454;28;20492;-49
2021/06/15 14:13:58;;;;;;;4.40;4.00;;;29.60;48.00;;;;;;5000407;28;20465;-53
2021/06/15 14:16:25;;;;;;;4.23;3.70;;;29.90;47.70;;;;;;5000662;28;20475;-48
2021/06/15 14:18:56;;;;;;;4.80;4.40;;;29.70;47.30;;;;;;5000694;28;20925;-53
2021/06/15 14:58:18;;;;;;;6.30;3.60;;;27.30;51.70;;;;;;5355244;23;20487;-51
2021/06/15 15:00:48;;;;;;;4.57;4.07;;;27.10;51.80;;;;;;4980890;28;20882;-55
2021/06/15 15:03:18;;;;;;;5.03;3.73;;;27.00;52.10;;;;;;4974714;28;20533;-49
2021/06/15 15:05:45;;;;;;;4.07;3.53;;;27.10;51.60;;;;;;4977557;28;20473;-51
2021/06/15 15:08:12;;;;;;;4.17;3.67;;;26.50;50.10;;;;;;4979797;28;20461;-56
2021/06/15 15:10:39;;;;;;;4.63;3.67;;;26.40;51.70;;;;;;4980391;28;20765;-53
2021/06/15 15:13:06;;;;;;;3.20;2.90;;;26.60;51.70;;;;;;4980103;28;20493;-55
2021/06/15 15:15:35;;;;;;;3.70;3.37;;;26.50;51.50;;;;;;4980476;28;20462;-54
2021/06/15 15:18:02;;;;;;;3.70;3.40;;;27.70;51.30;;;;;;4980200;28;20905;-56
2021/06/15 15:20:30;;;;;;;4.50;4.10;;;27.70;49.80;;;;;;4980561;28;20889;-50
2021/06/15 15:22:57;;;;;;;3.90;3.60;;;28.40;49.00;;;;;;4978688;28;20552;-49
2021/06/15 15:25:25;;;;;;;4.00;3.67;;;28.00;48.10;;;;;;4980128;28;20457;-56
2021/06/15 15:27:53;;;;;;;3.87;3.67;;;27.90;49.70;;;;;;4980019;28;20458;-57
2021/06/15 15:30:22;;;;;;;8.30;4.00;;;28.10;49.50;;;;;;4980284;28;20461;-57
2021/06/15 15:32:51;;;;;;;3.77;3.47;;;28.70;47.70;;;;;;4980096;28;20505;-55
2021/06/15 15:35:19;;;;;;;3.27;3.07;;;28.90;47.90;;;;;;4980058;28;20473;-55
2021/06/15 15:37:47;;;;;;;2.93;2.73;;;29.10;48.00;;;;;;4980171;28;20477;-55
2021/06/15 15:40:16;;;;;;;4.47;3.60;;;29.10;46.30;;;;;;4967685;28;20464;-51
2021/06/15 15:42:51;;;;;;;4.33;3.77;;;29.00;46.50;;;;;;4979971;28;20545;-51
2021/06/15 15:45:20;;;;;;;4.40;3.53;;;29.00;45.90;;;;;;4980119;28;20870;-54
2021/06/15 15:47:50;;;;;;;5.33;3.03;;;28.40;46.30;;;;;;4980001;28;20477;-49
2021/06/15 15:50:20;;;;;;;5.90;3.30;;;27.80;47.20;;;;;;4979452;28;21087;-48